Time;durP1;ratioP1;P1;durP2;ratioP2;P2;SDS_P1;SDS_P2;PMS_P1;PMS_P2;Temp;Humidity;BMP_temperature;BMP_pressure;BME280_temperature;BME280_humidity;BME280_pressure;Samples;Min_cycle;Max_cycle;Signal;HPM_P1;HPM_P2
2023/10/24 00:00:51;;;;;;;8.88;6.53;;;;;;;12.67;87.85;100142.16;5051764;28;20025;-64
2023/10/24 00:03:16;;;;;;;8.82;6.60;;;;;;;12.67;88.30;100146.91;5050773;28;20503;-64
2023/10/24 00:05:41;;;;;;;7.78;6.15;;;;;;;12.66;87.84;100145.25;5050346;28;20041;-64
2023/10/24 00:08:06;;;;;;;9.55;6.45;;;;;;;12.65;87.89;100135.22;5050936;28;20048;-64
2023/10/24 00:10:32;;;;;;;10.60;5.93;;;;;;;12.67;87.73;100141.34;5048693;28;20550;-64
2023/10/24 00:12:57;;;;;;;8.52;5.90;;;;;;;12.66;87.87;100146.06;5050685;28;20037;-64
2023/10/24 00:15:22;;;;;;;7.05;5.22;;;;;;;12.69;87.95;100139.09;5051233;28;20140;-64
2023/10/24 00:17:48;;;;;;;8.00;5.28;;;;;;;12.68;87.81;100137.44;5050953;28;20025;-64
2023/10/24 00:20:13;;;;;;;7.57;5.35;;;;;;;12.69;88.03;100133.50;5051154;28;20033;-64
2023/10/24 00:22:38;;;;;;;10.13;5.18;;;;;;;12.65;88.01;100140.78;5031356;28;20412;-63
2023/10/24 00:25:05;;;;;;;9.02;5.20;;;;;;;12.67;87.67;100133.81;5030692;28;20453;-63
2023/10/24 00:27:30;;;;;;;7.93;4.95;;;;;;;12.65;87.86;100130.47;5037241;28;20071;-63
2023/10/24 00:29:55;;;;;;;10.25;5.35;;;;;;;12.66;87.59;100134.13;5039296;28;20411;-63
2023/10/24 00:32:20;;;;;;;8.77;4.70;;;;;;;12.66;87.47;100128.53;5033143;28;20035;-63
2023/10/24 00:34:46;;;;;;;5.28;4.18;;;;;;;12.69;87.84;100130.72;5031195;28;20040;-63
2023/10/24 00:37:11;;;;;;;7.88;4.97;;;;;;;12.68;87.93;100129.06;5067379;28;20427;-63
2023/10/24 00:39:36;;;;;;;5.97;5.00;;;;;;;12.66;87.77;100137.72;5070828;28;20033;-63
2023/10/24 00:42:04;;;;;;;5.68;4.97;;;;;;;12.66;87.47;100131.31;5071223;28;20024;-63
2023/10/24 00:44:31;;;;;;;7.10;5.20;;;;;;;12.64;87.04;100133.53;5070323;28;20114;-63
2023/10/24 00:46:56;;;;;;;5.28;4.78;;;;;;;12.65;87.00;100143.56;5063773;28;20476;-64
2023/10/24 00:49:22;;;;;;;7.20;5.03;;;;;;;12.61;87.03;100136.91;5036657;28;20040;-64
2023/10/24 00:51:47;;;;;;;6.72;4.90;;;;;;;12.63;87.00;100145.81;5046754;28;20086;-63
2023/10/24 00:54:13;;;;;;;8.38;5.22;;;;;;;12.65;86.68;100151.91;5050851;28;20054;-63
2023/10/24 00:56:39;;;;;;;6.90;4.90;;;;;;;12.60;86.60;100143.59;5040583;28;20037;-63
2023/10/24 00:59:05;;;;;;;6.78;5.15;;;;;;;12.61;87.00;100143.28;5048060;28;20040;-63
2023/10/24 01:01:31;;;;;;;6.07;5.05;;;;;;;12.65;86.34;100144.38;5058055;28;20468;-63
2023/10/24 01:03:58;;;;;;;5.68;4.90;;;;;;;12.66;86.73;100150.81;5051194;28;20064;-63
2023/10/24 01:06:24;;;;;;;5.53;4.30;;;;;;;12.68;86.34;100146.59;5049369;28;20115;-63
2023/10/24 01:08:49;;;;;;;7.38;4.60;;;;;;;12.67;86.52;100138.56;5050566;28;20175;-63
2023/10/24 01:11:14;;;;;;;7.80;4.30;;;;;;;12.61;85.66;100134.09;5050636;28;20486;-63
2023/10/24 01:13:43;;;;;;;5.95;4.35;;;;;;;12.65;85.76;100138.00;5049963;28;20033;-63
2023/10/24 01:16:08;;;;;;;7.53;4.18;;;;;;;12.67;85.51;100135.78;5047447;28;21066;-63
2023/10/24 01:18:34;;;;;;;7.10;4.00;;;;;;;12.63;84.24;100131.88;5039158;28;20040;-63
2023/10/24 01:21:02;;;;;;;6.32;3.85;;;;;;;12.64;84.66;100133.53;5049087;28;20024;-63
2023/10/24 01:23:31;;;;;;;4.25;3.72;;;;;;;12.63;84.76;100146.63;5050474;28;20089;-63
2023/10/24 01:25:58;;;;;;;6.95;3.40;;;;;;;12.63;84.64;100135.50;5050056;28;20045;-63
2023/10/24 01:28:25;;;;;;;4.28;3.50;;;;;;;12.65;84.88;100138.81;5049964;28;20017;-63
2023/10/24 01:30:51;;;;;;;6.32;3.53;;;;;;;12.64;84.88;100137.16;5050584;28;20056;-63
2023/10/24 01:33:16;;;;;;;6.18;3.60;;;;;;;12.64;84.23;100136.34;5049809;28;20465;-63
2023/10/24 01:35:41;;;;;;;3.92;3.38;;;;;;;12.66;84.86;100142.47;5058630;28;20051;-63
2023/10/24 01:38:07;;;;;;;4.05;3.53;;;;;;;12.60;84.83;100146.38;5042971;28;20479;-63
2023/10/24 01:40:32;;;;;;;5.28;3.50;;;;;;;12.59;84.46;100155.84;5035114;28;20048;-63
2023/10/24 01:42:57;;;;;;;5.68;4.40;;;;;;;12.55;84.45;100150.00;5037223;28;20025;-63
2023/10/24 01:45:22;;;;;;;3.67;3.17;;;;;;;12.57;85.08;100142.19;5043824;28;20025;-64
2023/10/24 01:47:56;;;;;;;4.65;3.40;;;;;;;12.61;85.06;100148.03;5033101;28;20600;-64
2023/10/24 01:50:22;;;;;;;3.75;3.28;;;;;;;12.58;84.64;100134.69;5054152;28;20190;-63
2023/10/24 01:52:48;;;;;;;5.88;3.45;;;;;;;12.58;84.46;100131.91;5055601;28;20536;-63
2023/10/24 01:55:13;;;;;;;6.35;3.70;;;;;;;12.49;84.41;100140.81;5053874;28;20032;-63
2023/10/24 01:57:38;;;;;;;4.57;3.72;;;;;;;12.47;84.73;100143.06;5054042;28;20074;-63
2023/10/24 02:00:04;;;;;;;4.70;3.60;;;;;;;12.47;84.25;100145.03;5054025;28;20035;-63
2023/10/24 02:02:30;;;;;;;6.75;3.75;;;;;;;12.48;84.69;100141.94;5053101;28;20070;-63
2023/10/24 02:04:55;;;;;;;4.28;3.28;;;;;;;12.51;84.88;100135.00;5068480;28;20028;-63
2023/10/24 02:07:20;;;;;;;5.05;3.58;;;;;;;12.48;84.40;100132.78;5056254;28;20048;-63
2023/10/24 02:09:46;;;;;;;7.50;3.58;;;;;;;12.51;84.65;100146.13;5054875;28;20101;-64
2023/10/24 02:12:11;;;;;;;4.38;3.40;;;;;;;12.49;84.53;100134.44;5067140;28;20032;-63
2023/10/24 02:14:37;;;;;;;4.18;3.58;;;;;;;12.49;83.79;100143.59;5062087;28;20067;-63
2023/10/24 02:17:03;;;;;;;6.32;3.60;;;;;;;12.48;84.12;100133.59;5060474;28;20029;-63
2023/10/24 02:19:29;;;;;;;4.25;3.78;;;;;;;12.48;83.51;100133.59;5068881;28;20025;-63
2023/10/24 02:21:54;;;;;;;3.92;3.50;;;;;;;12.46;83.37;100138.63;5062165;28;20491;-63
2023/10/24 02:24:22;;;;;;;4.63;3.88;;;;;;;12.41;83.63;100133.06;5065894;28;20049;-63
2023/10/24 02:26:48;;;;;;;4.80;3.78;;;;;;;12.46;83.55;100140.59;5063362;28;20028;-63
2023/10/24 02:29:14;;;;;;;5.05;3.30;;;;;;;12.44;83.39;100126.09;5059563;28;20111;-63
2023/10/24 02:31:39;;;;;;;3.85;3.55;;;;;;;12.41;82.54;100133.06;5068996;28;20123;-63
2023/10/24 02:34:04;;;;;;;4.88;3.20;;;;;;;12.44;82.31;100138.06;5057410;28;20024;-63
2023/10/24 02:36:29;;;;;;;4.10;3.65;;;;;;;12.47;82.50;100148.66;5066277;28;20028;-63
2023/10/24 02:38:57;;;;;;;4.35;3.72;;;;;;;12.45;82.05;100144.47;5074100;28;20017;-63
2023/10/24 02:41:23;;;;;;;4.05;3.63;;;;;;;12.45;81.95;100145.28;5058624;28;20060;-64
2023/10/24 02:43:51;;;;;;;3.50;3.20;;;;;;;12.45;81.22;100150.03;5068719;28;20468;-63
2023/10/24 02:46:16;;;;;;;3.47;3.13;;;;;;;12.43;81.46;100152.28;5054738;28;20036;-63
2023/10/24 02:48:41;;;;;;;4.00;3.70;;;;;;;12.45;81.58;100153.63;5061745;28;20558;-63
2023/10/24 02:51:07;;;;;;;3.90;3.50;;;;;;;12.45;81.35;100158.38;5057926;28;20064;-63
2023/10/24 02:53:32;;;;;;;3.65;3.13;;;;;;;12.47;81.56;100157.00;5068976;28;20029;-63
2023/10/24 02:56:02;;;;;;;4.43;3.55;;;;;;;12.47;81.42;100153.38;5056201;28;20025;-65
2023/10/24 02:58:30;;;;;;;3.97;3.65;;;;;;;12.46;80.72;100169.25;5064954;28;20021;-64
2023/10/24 03:01:02;;;;;;;3.85;3.55;;;;;;;12.44;81.27;100165.91;5054314;28;20488;-64
2023/10/24 03:03:27;;;;;;;4.27;3.90;;;;;;;12.46;81.21;100165.63;5058474;28;20021;-64
2023/10/24 03:05:52;;;;;;;5.25;4.38;;;;;;;12.47;80.75;100165.34;5067561;28;20286;-64
2023/10/24 03:08:18;;;;;;;4.82;4.20;;;;;;;12.49;80.71;100162.25;5058327;28;20075;-64
2023/10/24 03:10:43;;;;;;;5.38;4.32;;;;;;;12.48;80.36;100161.44;5058825;28;20038;-64
2023/10/24 03:13:08;;;;;;;5.72;4.10;;;;;;;12.48;80.64;100166.16;5058340;28;20104;-64
2023/10/24 03:15:35;;;;;;;4.50;4.07;;;;;;;12.49;80.88;100171.44;5068667;28;20060;-64
2023/10/24 03:18:01;;;;;;;5.00;4.03;;;;;;;12.49;80.66;100173.41;5047312;28;20512;-65
2023/10/24 03:20:27;;;;;;;4.50;4.10;;;;;;;12.45;80.88;100167.56;5057237;28;20028;-65
2023/10/24 03:22:53;;;;;;;5.00;4.40;;;;;;;12.47;80.80;100165.34;5065786;28;20048;-65
2023/10/24 03:25:26;;;;;;;4.68;4.28;;;;;;;12.44;80.63;100171.47;5055022;28;20045;-65
2023/10/24 03:27:54;;;;;;;4.95;4.18;;;;;;;12.46;80.01;100168.41;5040908;28;20029;-65
2023/10/24 03:30:22;;;;;;;4.32;3.92;;;;;;;12.42;80.61;100167.31;5062523;28;20028;-63
2023/10/24 03:32:48;;;;;;;4.90;4.40;;;;;;;12.42;80.20;100168.16;5059818;28;20095;-63
2023/10/24 03:35:14;;;;;;;5.00;4.28;;;;;;;12.44;80.51;100174.25;5054751;28;20045;-63
2023/10/24 03:37:40;;;;;;;5.85;4.90;;;;;;;12.44;80.46;100171.47;5045827;28;20052;-64
2023/10/24 03:40:06;;;;;;;8.60;4.53;;;;;;;12.42;80.05;100168.16;5047198;28;20029;-64
2023/10/24 03:42:31;;;;;;;5.28;4.47;;;;;;;12.42;79.70;100165.38;5047721;28;20029;-63
2023/10/24 03:44:56;;;;;;;5.15;4.22;;;;;;;12.47;79.88;100175.66;5049365;28;20504;-64
2023/10/24 03:47:21;;;;;;;5.00;4.50;;;;;;;12.44;79.90;100160.34;5052730;28;20036;-64
2023/10/24 03:49:47;;;;;;;5.57;4.65;;;;;;;12.44;79.72;100176.19;5052712;28;20111;-64
2023/10/24 03:52:12;;;;;;;4.90;4.38;;;;;;;12.42;79.65;100179.28;5049706;28;20033;-64
2023/10/24 03:54:37;;;;;;;5.10;4.43;;;;;;;12.37;79.49;100165.34;5052173;28;20098;-63
2023/10/24 03:57:03;;;;;;;4.10;3.78;;;;;;;12.35;80.17;100173.16;5058114;28;20529;-63
2023/10/24 03:59:28;;;;;;;4.93;4.53;;;;;;;12.35;79.43;100178.72;5056379;28;20074;-63
2023/10/24 04:01:53;;;;;;;4.68;4.28;;;;;;;12.35;79.93;100175.13;5047639;28;20029;-64
2023/10/24 04:04:19;;;;;;;5.05;4.47;;;;;;;12.36;79.36;100179.56;5049052;28;20518;-63
2023/10/24 04:06:44;;;;;;;4.88;4.35;;;;;;;12.38;79.11;100177.31;5050374;28;20051;-64
2023/10/24 04:09:09;;;;;;;6.85;4.68;;;;;;;12.39;79.23;100176.22;5046870;28;20530;-63
2023/10/24 04:11:35;;;;;;;4.70;4.30;;;;;;;12.37;78.90;100176.50;5049607;28;20028;-64
2023/10/24 04:14:01;;;;;;;4.30;3.95;;;;;;;12.41;79.09;100174.81;5046422;28;20029;-63
2023/10/24 04:16:26;;;;;;;5.78;4.03;;;;;;;12.39;78.68;100170.66;5049777;28;20032;-64
2023/10/24 04:19:12;;;;;;;4.97;4.55;;;;;;;12.37;78.27;100179.28;5061302;28;20055;-64
2023/10/24 04:21:37;;;;;;;4.93;4.47;;;;;;;12.38;78.09;100169.81;5051541;28;20053;-64
2023/10/24 04:24:03;;;;;;;4.70;4.30;;;;;;;12.37;78.58;100165.34;5052009;28;20155;-63
2023/10/24 04:26:28;;;;;;;4.40;4.00;;;;;;;12.35;77.79;100156.47;5063117;28;20090;-64
2023/10/24 04:28:55;;;;;;;4.25;3.72;;;;;;;12.32;78.14;100154.25;5060020;28;20060;-64
2023/10/24 04:31:20;;;;;;;4.93;4.40;;;;;;;12.36;78.49;100138.66;5049421;28;20016;-64
2023/10/24 04:33:46;;;;;;;5.40;4.70;;;;;;;12.36;78.41;100141.44;5053362;28;20842;-64
2023/10/24 04:36:11;;;;;;;5.28;4.05;;;;;;;12.36;77.99;100137.81;5051786;28;20037;-65
2023/10/24 04:38:37;;;;;;;5.07;4.38;;;;;;;12.36;77.84;100137.81;5055702;28;20024;-64
2023/10/24 04:41:02;;;;;;;4.60;4.20;;;;;;;12.37;78.32;100133.91;5059502;28;20071;-65
2023/10/24 04:43:27;;;;;;;6.50;4.15;;;;;;;12.35;78.18;100134.22;5054610;28;20391;-65
2023/10/24 04:45:53;;;;;;;4.53;4.10;;;;;;;12.33;77.62;100136.41;5064177;28;20486;-63
2023/10/24 04:48:18;;;;;;;4.90;4.50;;;;;;;12.31;78.03;100141.44;5050547;28;20025;-63
2023/10/24 04:50:43;;;;;;;4.90;4.28;;;;;;;12.30;78.01;100142.56;5056736;28;20484;-63
2023/10/24 04:53:08;;;;;;;5.07;4.47;;;;;;;12.31;77.30;100151.75;5062141;28;20123;-63
2023/10/24 04:55:35;;;;;;;4.95;4.50;;;;;;;12.32;78.34;100145.06;5052341;28;20461;-63
2023/10/24 04:58:01;;;;;;;5.10;4.60;;;;;;;12.36;78.01;100146.16;5054052;28;20024;-63
2023/10/24 05:00:26;;;;;;;5.68;5.07;;;;;;;12.32;77.44;100148.69;5064301;28;20039;-63
2023/10/24 05:02:52;;;;;;;5.95;5.45;;;;;;;12.31;77.18;100152.59;5050023;28;20063;-63
2023/10/24 05:05:17;;;;;;;5.75;5.10;;;;;;;12.29;77.40;100155.63;5064657;28;20028;-63
2023/10/24 05:07:43;;;;;;;5.40;4.63;;;;;;;12.29;77.43;100147.28;5053764;28;20047;-63
2023/10/24 05:10:11;;;;;;;5.30;4.85;;;;;;;12.34;76.96;100154.81;5065524;28;20021;-63
2023/10/24 05:12:37;;;;;;;4.95;4.45;;;;;;;12.31;76.63;100154.53;5059082;28;20029;-63
2023/10/24 05:15:03;;;;;;;4.68;4.28;;;;;;;12.33;76.95;100153.13;5059485;28;20142;-63
2023/10/24 05:17:30;;;;;;;4.90;4.40;;;;;;;12.35;76.64;100155.63;5058757;28;20124;-63
2023/10/24 05:20:03;;;;;;;4.80;4.30;;;;;;;12.34;76.98;100151.16;5057542;28;20488;-63
2023/10/24 05:22:31;;;;;;;4.10;3.67;;;;;;;12.35;77.14;100150.06;5047278;28;20115;-63
2023/10/24 05:24:56;;;;;;;4.32;3.92;;;;;;;12.35;76.81;100152.84;5067614;28;20069;-63
2023/10/24 05:27:22;;;;;;;4.32;3.92;;;;;;;12.28;76.88;100156.75;5070167;28;20502;-63
2023/10/24 05:29:47;;;;;;;3.95;3.65;;;;;;;12.27;76.89;100159.84;5074248;28;20059;-63
2023/10/24 05:32:12;;;;;;;4.30;3.90;;;;;;;12.29;77.02;100149.22;5068400;28;20025;-63
2023/10/24 05:34:38;;;;;;;4.40;4.00;;;;;;;12.32;77.05;100134.75;5057465;28;20551;-65
2023/10/24 05:37:03;;;;;;;4.53;4.13;;;;;;;12.29;76.80;100122.25;5055762;28;20024;-64
2023/10/24 05:39:29;;;;;;;4.85;4.43;;;;;;;12.29;76.65;100118.63;5070051;28;20037;-64
2023/10/24 05:41:54;;;;;;;4.55;4.15;;;;;;;12.19;77.15;100118.66;5053904;28;20514;-64
2023/10/24 05:44:20;;;;;;;4.18;3.80;;;;;;;12.20;77.25;100125.91;5060233;28;20035;-61
2023/10/24 05:46:46;;;;;;;4.45;4.00;;;;;;;12.21;76.91;100133.13;5063516;28;20033;-66
2023/10/24 05:49:11;;;;;;;4.10;3.70;;;;;;;12.22;77.13;100132.00;5067752;28;20364;-65
2023/10/24 05:51:37;;;;;;;4.22;3.83;;;;;;;12.22;77.20;100140.34;5056712;28;20033;-66
2023/10/24 05:54:02;;;;;;;4.43;4.03;;;;;;;12.20;77.43;100145.38;5060241;28;20036;-65
2023/10/24 05:56:28;;;;;;;4.10;3.70;;;;;;;12.21;78.16;100145.06;5060971;28;20130;-65
2023/10/24 05:58:54;;;;;;;4.07;3.67;;;;;;;12.25;77.93;100137.00;5065900;28;20017;-65
2023/10/24 06:01:20;;;;;;;4.50;3.90;;;;;;;12.23;77.69;100147.59;5043425;28;20021;-65
2023/10/24 06:03:46;;;;;;;3.90;3.50;;;;;;;12.22;77.30;100148.69;5064013;28;20028;-64
2023/10/24 06:06:11;;;;;;;6.70;3.72;;;;;;;12.20;76.89;100148.16;5054236;28;20032;-63
2023/10/24 06:08:37;;;;;;;3.03;2.70;;;;;;;12.16;77.61;100158.19;5067575;28;20025;-64
2023/10/24 06:11:03;;;;;;;4.05;3.45;;;;;;;12.10;77.38;100162.06;5062380;28;20459;-63
2023/10/24 06:13:29;;;;;;;4.63;3.05;;;;;;;12.08;77.29;100155.97;5039438;28;20116;-63
2023/10/24 06:15:55;;;;;;;3.53;3.22;;;;;;;12.08;77.65;100147.63;5037523;28;20133;-64
2023/10/24 06:18:21;;;;;;;2.90;2.70;;;;;;;12.10;77.79;100145.38;5049156;28;20103;-64
2023/10/24 06:20:47;;;;;;;3.10;2.90;;;;;;;12.10;77.26;100140.63;5062067;28;20753;-64
2023/10/24 06:23:12;;;;;;;3.33;3.03;;;;;;;12.14;77.21;100135.34;5049348;28;20480;-63
2023/10/24 06:25:41;;;;;;;3.22;2.92;;;;;;;12.13;77.27;100137.31;5068059;28;20055;-63
2023/10/24 06:28:08;;;;;;;3.25;2.95;;;;;;;12.12;77.19;100132.88;5054310;28;20033;-63
2023/10/24 06:30:34;;;;;;;3.58;2.72;;;;;;;12.14;77.43;100144.53;5051157;28;20041;-62
2023/10/24 06:33:00;;;;;;;3.45;3.13;;;;;;;12.15;76.90;100140.66;5051797;28;20191;-63
2023/10/24 06:35:28;;;;;;;4.18;3.30;;;;;;;12.19;77.18;100152.88;5039615;28;20116;-63
2023/10/24 06:37:53;;;;;;;4.68;3.45;;;;;;;12.20;77.42;100159.28;5048703;28;20040;-64
2023/10/24 06:40:19;;;;;;;3.75;3.45;;;;;;;12.21;77.11;100175.69;5064043;28;20033;-63
2023/10/24 06:42:45;;;;;;;5.63;3.80;;;;;;;12.20;76.80;100173.19;5032511;28;20025;-64
2023/10/24 06:45:11;;;;;;;4.63;3.80;;;;;;;12.19;77.25;100191.00;5047047;28;20033;-64
2023/10/24 06:47:37;;;;;;;4.80;3.63;;;;;;;12.15;76.98;100182.38;5047083;28;20526;-63
2023/10/24 06:50:03;;;;;;;5.53;4.13;;;;;;;12.13;77.70;100170.69;5047482;28;20211;-65
2023/10/24 06:52:28;;;;;;;4.97;4.10;;;;;;;12.10;77.32;100167.63;5050090;28;20465;-64
2023/10/24 06:54:54;;;;;;;5.43;4.30;;;;;;;12.09;77.67;100158.47;5032217;28;20036;-64
2023/10/24 06:57:19;;;;;;;4.15;3.75;;;;;;;12.13;78.02;100158.72;5045827;28;20032;-64
2023/10/24 06:59:47;;;;;;;4.78;4.38;;;;;;;12.16;77.87;100164.56;5051696;28;20029;-64
2023/10/24 07:02:12;;;;;;;5.55;4.18;;;;;;;12.16;77.64;100170.13;5042146;28;20087;-64
2023/10/24 07:04:37;;;;;;;6.03;5.00;;;;;;;12.09;77.77;100160.41;5045610;28;20033;-64
2023/10/24 07:07:03;;;;;;;5.10;4.60;;;;;;;12.12;78.19;100157.06;5050633;28;20032;-64
2023/10/24 07:09:28;;;;;;;6.78;4.78;;;;;;;12.13;78.08;100142.03;5069329;28;20434;-65
2023/10/24 07:11:53;;;;;;;5.47;4.95;;;;;;;12.16;78.24;100141.47;5071482;28;20025;-64
2023/10/24 07:14:19;;;;;;;5.65;5.13;;;;;;;12.18;78.56;100140.09;5042452;28;20409;-64
2023/10/24 07:16:44;;;;;;;5.32;4.82;;;;;;;12.19;78.18;100143.72;5048283;28;20036;-64
2023/10/24 07:19:10;;;;;;;5.60;5.05;;;;;;;12.21;78.55;100149.81;5051278;28;20358;-64
2023/10/24 07:21:35;;;;;;;4.88;4.38;;;;;;;12.23;78.33;100145.66;5047110;28;20052;-64
2023/10/24 07:24:01;;;;;;;6.70;5.25;;;;;;;12.22;78.34;100148.69;5033678;28;20095;-64
2023/10/24 07:26:26;;;;;;;5.72;5.22;;;;;;;12.22;78.42;100154.25;5039086;28;20344;-63
2023/10/24 07:28:52;;;;;;;5.93;5.35;;;;;;;12.21;78.40;100153.44;5040875;28;20508;-64
2023/10/24 07:31:17;;;;;;;6.70;5.53;;;;;;;12.22;78.48;100157.91;5039696;28;20029;-64
2023/10/24 07:33:42;;;;;;;5.75;4.88;;;;;;;12.26;78.17;100167.34;5031226;28;20046;-63
2023/10/24 07:36:09;;;;;;;7.78;5.90;;;;;;;12.28;79.23;100151.19;5032260;28;20134;-64
2023/10/24 07:38:34;;;;;;;7.13;5.97;;;;;;;12.33;78.63;100149.50;5041363;28;20017;-63
2023/10/24 07:41:01;;;;;;;6.75;5.50;;;;;;;12.35;78.58;100148.13;5047715;28;20036;-63
2023/10/24 07:43:26;;;;;;;8.57;5.78;;;;;;;12.33;78.55;100155.91;5031530;28;20025;-64
2023/10/24 07:45:54;;;;;;;8.27;5.68;;;;;;;12.35;78.53;100167.59;5047830;28;20122;-64
2023/10/24 07:48:20;;;;;;;9.60;6.15;;;;;;;12.33;78.71;100142.00;5050322;28;20554;-63
2023/10/24 07:50:55;;;;;;;7.50;5.85;;;;;;;12.34;78.55;100149.25;5049795;28;20119;-64
2023/10/24 07:53:22;;;;;;;7.03;6.28;;;;;;;12.33;78.75;100147.56;5050601;28;20444;-63
2023/10/24 07:55:48;;;;;;;7.65;5.78;;;;;;;12.37;78.71;100143.09;5046967;28;20032;-63
2023/10/24 07:58:16;;;;;;;7.90;6.05;;;;;;;12.39;78.25;100138.09;5052775;28;20546;-63
2023/10/24 08:00:45;;;;;;;8.32;6.20;;;;;;;12.40;78.52;100142.53;5047038;28;20044;-62
2023/10/24 08:03:17;;;;;;;7.50;6.20;;;;;;;12.42;78.34;100145.88;5050778;28;20100;-63
2023/10/24 08:05:42;;;;;;;8.23;5.47;;;;;;;12.45;78.15;100141.69;5046877;28;20027;-62
2023/10/24 08:08:08;;;;;;;6.90;6.20;;;;;;;12.45;78.54;100138.91;5048885;28;20116;-63
2023/10/24 08:10:34;;;;;;;8.00;6.40;;;;;;;12.44;78.48;100143.63;5049929;28;20025;-63
2023/10/24 08:13:00;;;;;;;6.85;5.85;;;;;;;12.52;78.62;100147.78;5049568;28;20055;-63
2023/10/24 08:15:26;;;;;;;6.57;5.90;;;;;;;12.58;78.70;100145.84;5045767;28;20030;-63
2023/10/24 08:17:51;;;;;;;6.75;5.35;;;;;;;12.70;78.85;100143.56;5038532;28;20028;-64
2023/10/24 08:20:17;;;;;;;6.70;5.97;;;;;;;12.77;78.87;100144.06;5050066;28;20040;-63
2023/10/24 08:22:43;;;;;;;7.00;5.97;;;;;;;12.76;78.02;100134.03;5048474;28;20742;-63
2023/10/24 08:25:09;;;;;;;6.53;5.93;;;;;;;12.77;77.44;100142.13;5046195;28;20057;-63
2023/10/24 08:27:34;;;;;;;7.85;5.63;;;;;;;12.82;77.19;100140.44;5046475;28;20048;-62
2023/10/24 08:30:00;;;;;;;7.63;5.88;;;;;;;12.76;76.87;100140.44;5049393;28;20124;-63
2023/10/24 08:32:25;;;;;;;5.95;4.70;;;;;;;12.78;77.18;100142.97;5047703;28;20033;-63
2023/10/24 08:34:50;;;;;;;6.60;5.05;;;;;;;12.82;77.47;100148.81;5049318;28;20035;-62
2023/10/24 08:37:16;;;;;;;6.03;5.38;;;;;;;12.85;77.22;100164.91;5043666;28;20071;-63
2023/10/24 08:39:41;;;;;;;5.68;5.07;;;;;;;12.85;77.02;100171.34;5048195;28;20393;-64
2023/10/24 08:42:12;;;;;;;8.23;4.40;;;;;;;12.88;77.11;100176.31;5050149;28;20029;-63
2023/10/24 08:44:40;;;;;;;6.43;4.53;;;;;;;12.95;76.97;100176.84;5049535;28;20070;-63
2023/10/24 08:47:05;;;;;;;7.53;4.28;;;;;;;13.00;76.92;100176.81;5048332;28;20124;-64
2023/10/24 08:49:32;;;;;;;5.50;4.38;;;;;;;13.06;76.75;100171.25;5046524;28;20108;-64
2023/10/24 08:51:57;;;;;;;7.22;4.28;;;;;;;13.08;76.31;100171.78;5060871;28;20124;-62
2023/10/24 08:54:22;;;;;;;5.00;4.35;;;;;;;13.06;76.22;100152.56;5038283;28;20041;-63
2023/10/24 08:56:50;;;;;;;5.60;4.00;;;;;;;13.00;75.79;100156.50;5047541;28;20071;-62
2023/10/24 08:59:16;;;;;;;4.60;4.20;;;;;;;12.95;76.32;100162.09;5049102;28;20033;-63
2023/10/24 09:01:43;;;;;;;5.53;4.55;;;;;;;12.94;76.27;100166.84;5047304;28;20400;-62
2023/10/24 09:04:11;;;;;;;6.40;4.32;;;;;;;12.88;75.80;100161.56;5048243;28;20037;-62
2023/10/24 09:06:37;;;;;;;7.32;5.18;;;;;;;12.82;76.20;100163.56;5060572;28;20116;-61
2023/10/24 09:09:03;;;;;;;6.50;4.93;;;;;;;12.81;76.80;100153.53;5043589;28;20515;-62
2023/10/24 09:12:04;;;;;;;9.77;5.28;;;;;;;12.86;76.93;100156.28;5050196;28;20052;-62
2023/10/24 09:14:29;;;;;;;8.25;6.38;;;;;;;12.80;77.00;100156.59;5037686;28;20048;-63
2023/10/24 09:16:57;;;;;;;8.50;6.85;;;;;;;12.81;77.17;100145.19;5046829;28;20116;-62
2023/10/24 09:19:27;;;;;;;11.00;8.00;;;;;;;12.83;77.26;100140.16;5048152;28;20539;-62
2023/10/24 09:21:52;;;;;;;9.57;8.23;;;;;;;12.84;77.34;100141.81;5048740;28;20033;-62
2023/10/24 09:24:19;;;;;;;11.70;9.32;;;;;;;12.81;77.34;100149.91;5047720;28;20043;-62
2023/10/24 09:26:55;;;;;;;10.10;9.10;;;;;;;12.85;77.83;100149.06;5059082;28;20028;-62
2023/10/24 09:29:24;;;;;;;11.00;9.55;;;;;;;12.87;77.52;100132.88;5041063;28;20033;-61
2023/10/24 09:31:50;;;;;;;9.95;9.05;;;;;;;12.94;77.92;100124.22;5043980;28;20028;-63
2023/10/24 09:34:16;;;;;;;11.77;9.02;;;;;;;13.00;77.78;100129.47;5048722;28;20472;-61
2023/10/24 09:36:43;;;;;;;10.00;8.80;;;;;;;13.06;77.10;100141.44;5047470;28;20036;-61
2023/10/24 09:39:10;;;;;;;12.80;9.18;;;;;;;13.11;77.30;100143.34;5046898;28;20563;-62
2023/10/24 09:41:35;;;;;;;11.45;8.25;;;;;;;13.14;77.20;100151.13;5056311;28;20028;-62
2023/10/24 09:44:02;;;;;;;8.57;7.30;;;;;;;13.16;77.46;100155.28;5049074;28;20021;-61
2023/10/24 09:46:28;;;;;;;8.75;7.18;;;;;;;13.20;77.57;100147.19;5046851;28;20037;-62
2023/10/24 09:48:58;;;;;;;7.80;7.00;;;;;;;13.21;77.23;100132.97;5043140;28;20430;-62
2023/10/24 09:51:24;;;;;;;8.27;6.78;;;;;;;13.21;77.29;100121.84;5039273;28;20045;-62
2023/10/24 09:53:49;;;;;;;11.90;6.60;;;;;;;13.21;77.03;100121.00;5047566;28;20071;-60
2023/10/24 09:56:16;;;;;;;9.18;6.47;;;;;;;13.19;77.08;100132.44;5059393;28;20052;-63
2023/10/24 09:58:43;;;;;;;6.90;5.72;;;;;;;13.15;77.26;100125.75;5058941;28;20024;-62
2023/10/24 10:01:09;;;;;;;6.32;5.35;;;;;;;13.18;77.57;100130.78;5063289;28;20075;-62
2023/10/24 10:03:38;;;;;;;6.38;5.00;;;;;;;13.18;77.19;100129.94;5066368;28;20030;-62
2023/10/24 10:06:08;;;;;;;6.03;5.28;;;;;;;13.17;77.71;100122.72;5052923;28;20582;-62
2023/10/24 10:08:41;;;;;;;5.75;5.03;;;;;;;13.20;77.82;100136.03;5065577;28;20032;-62
2023/10/24 10:11:06;;;;;;;;;;;;;;;13.29;77.53;100142.72;5055929;28;20495;-62
2023/10/24 10:13:42;;;;;;;7.22;4.70;;;;;;;13.23;77.15;100138.28;5065562;28;19916;-62
2023/10/24 10:16:29;;;;;;;8.25;5.13;;;;;;;13.20;77.42;100136.03;5048169;28;20675;-62
2023/10/24 10:19:19;;;;;;;5.55;4.97;;;;;;;13.17;77.41;100145.81;5046397;28;20033;-63
2023/10/24 10:21:55;;;;;;;6.72;4.90;;;;;;;13.19;77.39;100143.56;5041636;28;20052;-64
2023/10/24 10:24:54;;;;;;;7.68;5.18;;;;;;;13.15;77.62;100148.06;5039284;28;20120;-63
2023/10/24 10:27:29;;;;;;;9.10;5.18;;;;;;;13.16;77.29;100144.13;5059384;28;20126;-64
2023/10/24 10:30:14;;;;;;;7.13;4.55;;;;;;;13.13;77.56;100149.47;5064799;28;20025;-62
2023/10/24 10:32:58;;;;;;;7.25;5.07;;;;;;;13.15;77.91;100147.22;5047363;28;20048;-62
2023/10/24 10:35:47;;;;;;;6.38;5.13;;;;;;;13.18;77.70;100143.88;5032349;28;20513;-62
2023/10/24 10:38:13;;;;;;;6.22;4.80;;;;;;;13.13;77.38;100136.38;5042845;28;20030;-63
2023/10/24 10:40:38;;;;;;;5.35;4.65;;;;;;;13.13;78.10;100136.38;5045594;28;20809;-63
2023/10/24 10:43:03;;;;;;;6.57;4.75;;;;;;;13.12;77.72;100131.91;5042789;28;20048;-63
2023/10/24 10:45:36;;;;;;;5.97;4.55;;;;;;;13.12;78.68;100133.88;5041563;28;20021;-65
2023/10/24 10:48:06;;;;;;;6.78;4.88;;;;;;;13.11;78.76;100130.25;5050687;28;20029;-65
2023/10/24 10:50:33;;;;;;;6.85;4.72;;;;;;;13.11;79.48;100126.63;5037294;28;20029;-64
2023/10/24 10:53:26;;;;;;;6.70;4.80;;;;;;;13.13;79.79;100124.41;5050077;28;20025;-65
2023/10/24 10:56:14;;;;;;;5.00;4.50;;;;;;;13.15;79.72;100127.72;5060743;28;20060;-65
2023/10/24 10:58:42;;;;;;;7.35;4.78;;;;;;;13.13;80.23;100127.19;5066644;28;20031;-63
2023/10/24 11:01:21;;;;;;;6.78;4.75;;;;;;;13.12;81.07;100131.06;5060414;28;20476;-61
2023/10/24 11:03:48;;;;;;;6.45;5.25;;;;;;;13.14;81.27;100131.63;5051681;28;20123;-62
2023/10/24 11:06:15;;;;;;;6.60;4.85;;;;;;;13.11;81.44;100124.69;5054843;28;20068;-66
2023/10/24 11:08:43;;;;;;;9.30;5.30;;;;;;;13.10;82.08;100134.16;5054889;28;20648;-63
2023/10/24 11:11:12;;;;;;;8.00;5.60;;;;;;;13.09;82.30;100138.06;5064998;28;20027;-64
2023/10/24 11:13:42;;;;;;;7.55;5.35;;;;;;;13.07;82.61;100137.50;5068634;28;20020;-64
2023/10/24 11:16:10;;;;;;;6.63;5.75;;;;;;;13.06;83.05;100149.78;5065122;28;20048;-65
2023/10/24 11:18:36;;;;;;;6.82;5.45;;;;;;;13.05;82.84;100153.69;5052549;28;20465;-65
2023/10/24 11:21:04;;;;;;;5.88;4.60;;;;;;;13.02;82.41;100145.91;5068985;28;20021;-65
2023/10/24 11:23:32;;;;;;;6.05;4.55;;;;;;;13.03;83.02;100144.78;5067062;28;20069;-65